This is the latest recevied weather packets stored in our database for station/object KC3VCX. If no packets are shown the sender has not sent any weather packets the latest 10 day(s).
| Time | Temp. | Humidity | Pressure | Rain* | Wind** | Luminosity | Snow |
|---|---|---|---|---|---|---|---|
| 1777145383 | 13.33° C | 92% | 1011.5 hPa | 0 mm | - | 86 W/m² | - |
| 1777145078 | 13.89° C | 92% | 1011.4 hPa | 0 mm | - | 67 W/m² | - |
| 1777144772 | 14.44° C | 92% | 1011.1 hPa | 0 mm | - | 86 W/m² | - |
| 1777144466 | 14.44° C | 92% | 1011.3 hPa | 0 mm | - | 64 W/m² | - |
| 1777144164 | 15° C | 91% | 1010.9 hPa | 0 mm | - | 72 W/m² | - |
| 1777143860 | 15.56° C | 90% | 1010.8 hPa | 4.83 mm | - | 87 W/m² | - |
| 1777143557 | 15.56° C | 89% | 1010.8 hPa | 6.1 mm | - | 193 W/m² | - |
| 1777143256 | 17.22° C | 84% | 1010.6 hPa | 3.05 mm | - | 61 W/m² | - |
| 1777142953 | 17.22° C | 82% | 1010.3 hPa | 0 mm | - | 194 W/m² | - |
| 1777142649 | 17.78° C | 83% | 1010.4 hPa | 0 mm | - | 369 W/m² | - |
| 1777142347 | 17.78° C | 82% | 1010.6 hPa | 0 mm | - | 394 W/m² | - |
| 1777142041 | 17.78° C | 84% | 1010.3 hPa | 0 mm | - | 330 W/m² | - |
| 1777141737 | 17.22° C | 85% | 1010.6 hPa | 0 mm | - | 361 W/m² | - |
| 1777141435 | 16.67° C | 86% | 1010.3 hPa | 0 mm | - | 285 W/m² | - |
| 1777141133 | 16.67° C | 87% | 1010.5 hPa | 0 mm | - | 186 W/m² | - |
| 1777140829 | 16.67° C | 87% | 1010.4 hPa | 0 mm | - | 152 W/m² | - |
| 1777140525 | 17.22° C | 88% | 1010.5 hPa | 0 mm | - | 176 W/m² | - |
| 1777140224 | 16.67° C | 88% | 1010.4 hPa | 0 mm | - | 278 W/m² | - |
| 1777139920 | 16.67° C | 88% | 1010.6 hPa | 0 mm | - | 377 W/m² | - |
| 1777139618 | 16.67° C | 89% | 1010.5 hPa | 0 mm | - | 421 W/m² | - |
| 1777139318 | 16.11° C | 90% | 1010.3 hPa | 0 mm | - | 371 W/m² | - |
| 1777139014 | 16.11° C | 91% | 1010.6 hPa | 0 mm | - | 183 W/m² | - |
| 1777138712 | 16.11° C | 91% | 1010.6 hPa | 0 mm | - | 222 W/m² | - |
| 1777138406 | 16.11° C | 92% | 1010.3 hPa | 0 mm | - | 307 W/m² | - |
| 1777138103 | 15.56° C | 92% | 1010.4 hPa | 0 mm | - | 155 W/m² | - |
* Rain latest hour (hover to see other rain measurements)
** Current wind speed in m/s (hover to see current wind gust speed)